sensor_id;sensor_type;location;lat;lon;timestamp;pressure;altitude;pressure_sealevel;temperature;humidity
10948;BME280;5526;42.070;24.752;2023-02-18T00:00:58;99649.97;;;12.55;33.06
10948;BME280;5526;42.070;24.752;2023-02-18T00:03:26;99641.00;;;12.56;33.10
10948;BME280;5526;42.070;24.752;2023-02-18T00:05:53;99649.72;;;12.56;33.06
10948;BME280;5526;42.070;24.752;2023-02-18T00:08:20;99652.09;;;12.58;33.04
10948;BME280;5526;42.070;24.752;2023-02-18T00:10:49;99631.97;;;12.52;33.01
10948;BME280;5526;42.070;24.752;2023-02-18T00:13:16;99652.16;;;12.63;32.85
10948;BME280;5526;42.070;24.752;2023-02-18T00:15:43;99644.25;;;12.68;32.78
10948;BME280;5526;42.070;24.752;2023-02-18T00:18:10;99646.91;;;12.68;32.76
10948;BME280;5526;42.070;24.752;2023-02-18T00:20:38;99646.63;;;12.64;32.88
10948;BME280;5526;42.070;24.752;2023-02-18T00:23:05;99640.53;;;12.64;32.82
10948;BME280;5526;42.070;24.752;2023-02-18T00:25:32;99636.06;;;12.64;32.73
10948;BME280;5526;42.070;24.752;2023-02-18T00:28:00;99629.44;;;12.62;33.01
10948;BME280;5526;42.070;24.752;2023-02-18T00:30:27;99633.66;;;12.63;32.84
10948;BME280;5526;42.070;24.752;2023-02-18T00:32:54;99633.66;;;12.63;32.81
10948;BME280;5526;42.070;24.752;2023-02-18T00:35:21;99634.19;;;12.65;32.76
10948;BME280;5526;42.070;24.752;2023-02-18T00:37:50;99637.38;;;12.62;32.77
10948;BME280;5526;42.070;24.752;2023-02-18T00:40:18;99630.47;;;12.61;32.87
10948;BME280;5526;42.070;24.752;2023-02-18T00:42:45;99628.31;;;12.58;33.05
10948;BME280;5526;42.070;24.752;2023-02-18T00:45:14;99628.31;;;12.58;32.90
10948;BME280;5526;42.070;24.752;2023-02-18T00:47:41;99616.63;;;12.49;33.14
10948;BME280;5526;42.070;24.752;2023-02-18T00:50:09;99624.25;;;12.45;33.15
10948;BME280;5526;42.070;24.752;2023-02-18T00:52:36;99615.50;;;12.40;33.06
10948;BME280;5526;42.070;24.752;2023-02-18T00:55:04;99616.00;;;12.37;33.08
10948;BME280;5526;42.070;24.752;2023-02-18T00:57:31;99613.84;;;12.34;33.01
10948;BME280;5526;42.070;24.752;2023-02-18T00:59:58;99600.34;;;12.30;33.19
10948;BME280;5526;42.070;24.752;2023-02-18T01:02:26;99600.06;;;12.27;33.14
10948;BME280;5526;42.070;24.752;2023-02-18T01:04:53;99599.72;;;12.18;33.39
10948;BME280;5526;42.070;24.752;2023-02-18T01:07:20;99591.47;;;12.15;33.25
10948;BME280;5526;42.070;24.752;2023-02-18T01:09:48;99589.59;;;12.10;33.15
10948;BME280;5526;42.070;24.752;2023-02-18T01:12:15;99584.16;;;11.95;33.68
10948;BME280;5526;42.070;24.752;2023-02-18T01:14:42;99579.28;;;11.82;34.05
10948;BME280;5526;42.070;24.752;2023-02-18T01:17:10;99574.88;;;11.66;34.21
10948;BME280;5526;42.070;24.752;2023-02-18T01:19:38;99571.59;;;11.38;35.00
10948;BME280;5526;42.070;24.752;2023-02-18T01:22:05;99559.09;;;11.12;35.65
10948;BME280;5526;42.070;24.752;2023-02-18T01:24:32;99561.19;;;11.10;35.91
10948;BME280;5526;42.070;24.752;2023-02-18T01:26:59;99554.56;;;11.07;36.21
10948;BME280;5526;42.070;24.752;2023-02-18T01:29:26;99555.78;;;11.00;36.32
10948;BME280;5526;42.070;24.752;2023-02-18T01:31:53;99552.44;;;10.88;36.01
10948;BME280;5526;42.070;24.752;2023-02-18T01:34:20;99541.84;;;10.83;36.54
10948;BME280;5526;42.070;24.752;2023-02-18T01:36:48;99543.13;;;10.64;37.03
10948;BME280;5526;42.070;24.752;2023-02-18T01:39:15;99544.25;;;10.51;37.30
10948;BME280;5526;42.070;24.752;2023-02-18T01:41:42;99550.47;;;10.29;37.86
10948;BME280;5526;42.070;24.752;2023-02-18T01:44:11;99538.00;;;10.24;38.00
10948;BME280;5526;42.070;24.752;2023-02-18T01:46:38;99543.13;;;10.14;38.00
10948;BME280;5526;42.070;24.752;2023-02-18T01:49:06;99543.94;;;10.03;38.47
10948;BME280;5526;42.070;24.752;2023-02-18T01:51:35;99536.97;;;9.97;38.80
10948;BME280;5526;42.070;24.752;2023-02-18T01:54:07;99540.38;;;9.81;39.71
10948;BME280;5526;42.070;24.752;2023-02-18T01:56:38;99546.59;;;9.64;39.94
10948;BME280;5526;42.070;24.752;2023-02-18T01:59:11;99540.22;;;9.60;40.39
10948;BME280;5526;42.070;24.752;2023-02-18T02:01:40;99543.66;;;9.49;40.61
10948;BME280;5526;42.070;24.752;2023-02-18T02:04:08;99543.56;;;9.44;40.40
10948;BME280;5526;42.070;24.752;2023-02-18T02:06:35;99551.13;;;9.40;40.82
10948;BME280;5526;42.070;24.752;2023-02-18T02:09:05;99551.00;;;9.35;41.30
10948;BME280;5526;42.070;24.752;2023-02-18T02:11:53;99551.38;;;9.27;41.49
10948;BME280;5526;42.070;24.752;2023-02-18T02:14:38;99544.31;;;9.16;41.12
10948;BME280;5526;42.070;24.752;2023-02-18T02:17:15;99544.41;;;9.10;41.45
10948;BME280;5526;42.070;24.752;2023-02-18T02:26:35;99555.84;;;8.46;44.95
10948;BME280;5526;42.070;24.752;2023-02-18T02:32:38;99565.41;;;8.40;44.68
10948;BME280;5526;42.070;24.752;2023-02-18T02:35:15;99561.25;;;8.21;44.45
10948;BME280;5526;42.070;24.752;2023-02-18T02:37:48;99564.88;;;8.20;44.18
10948;BME280;5526;42.070;24.752;2023-02-18T02:40:22;99571.09;;;8.08;44.70
10948;BME280;5526;42.070;24.752;2023-02-18T02:43:01;99573.06;;;8.12;44.80
10948;BME280;5526;42.070;24.752;2023-02-18T02:45:40;99568.38;;;8.14;44.67
10948;BME280;5526;42.070;24.752;2023-02-18T02:48:15;99573.19;;;8.17;44.41
10948;BME280;5526;42.070;24.752;2023-02-18T02:50:53;99572.16;;;8.18;44.07
10948;BME280;5526;42.070;24.752;2023-02-18T02:53:27;99572.16;;;8.18;44.44
10948;BME280;5526;42.070;24.752;2023-02-18T02:55:56;99570.34;;;8.19;44.67
10948;BME280;5526;42.070;24.752;2023-02-18T02:58:23;99584.47;;;8.18;44.39
10948;BME280;5526;42.070;24.752;2023-02-18T03:00:59;99580.59;;;8.20;44.83
10948;BME280;5526;42.070;24.752;2023-02-18T03:03:44;99575.81;;;8.17;45.08
10948;BME280;5526;42.070;24.752;2023-02-18T03:06:37;99571.00;;;8.14;45.04
10948;BME280;5526;42.070;24.752;2023-02-18T03:09:11;99557.31;;;8.12;44.51
10948;BME280;5526;42.070;24.752;2023-02-18T03:11:45;99561.44;;;8.20;44.18
10948;BME280;5526;42.070;24.752;2023-02-18T03:14:25;99560.22;;;8.22;44.78
10948;BME280;5526;42.070;24.752;2023-02-18T03:16:58;99559.19;;;8.23;44.92
10948;BME280;5526;42.070;24.752;2023-02-18T03:19:30;99554.38;;;8.20;45.24
10948;BME280;5526;42.070;24.752;2023-02-18T03:22:04;99552.56;;;8.21;44.75
10948;BME280;5526;42.070;24.752;2023-02-18T03:24:35;99545.06;;;8.24;44.12
10948;BME280;5526;42.070;24.752;2023-02-18T03:27:06;99535.75;;;8.28;44.34
10948;BME280;5526;42.070;24.752;2023-02-18T03:29:36;99528.69;;;8.40;43.17
10948;BME280;5526;42.070;24.752;2023-02-18T03:32:06;99528.13;;;8.50;42.48
10948;BME280;5526;42.070;24.752;2023-02-18T03:34:37;99533.25;;;8.56;42.42
10948;BME280;5526;42.070;24.752;2023-02-18T03:37:07;99533.03;;;8.69;41.99
10948;BME280;5526;42.070;24.752;2023-02-18T03:39:36;99531.69;;;8.78;41.52
10948;BME280;5526;42.070;24.752;2023-02-18T03:42:05;99532.81;;;8.94;41.43
10948;BME280;5526;42.070;24.752;2023-02-18T03:44:32;99518.78;;;9.00;40.40
10948;BME280;5526;42.070;24.752;2023-02-18T03:46:59;99528.00;;;9.14;40.54
10948;BME280;5526;42.070;24.752;2023-02-18T03:49:26;99534.47;;;9.23;39.80
10948;BME280;5526;42.070;24.752;2023-02-18T03:51:53;99526.38;;;9.25;40.26
10948;BME280;5526;42.070;24.752;2023-02-18T03:54:21;99528.03;;;9.42;39.45
10948;BME280;5526;42.070;24.752;2023-02-18T03:56:48;99534.28;;;9.53;39.36
10948;BME280;5526;42.070;24.752;2023-02-18T03:59:15;99533.47;;;9.64;38.92
10948;BME280;5526;42.070;24.752;2023-02-18T04:01:42;99543.81;;;9.70;38.84
10948;BME280;5526;42.070;24.752;2023-02-18T04:04:09;99544.84;;;9.81;38.57
10948;BME280;5526;42.070;24.752;2023-02-18T04:06:36;99542.84;;;9.88;38.71
10948;BME280;5526;42.070;24.752;2023-02-18T04:09:03;99552.97;;;9.96;38.46
10948;BME280;5526;42.070;24.752;2023-02-18T04:11:35;99549.53;;;10.07;37.49
10948;BME280;5526;42.070;24.752;2023-02-18T04:14:03;99548.53;;;10.08;38.25
10948;BME280;5526;42.070;24.752;2023-02-18T04:16:30;99562.81;;;10.00;37.93
10948;BME280;5526;42.070;24.752;2023-02-18T04:18:57;99553.88;;;9.73;38.59
10948;BME280;5526;42.070;24.752;2023-02-18T04:21:24;99535.13;;;9.42;39.25
10948;BME280;5526;42.070;24.752;2023-02-18T04:23:51;99567.19;;;9.55;39.33
10948;BME280;5526;42.070;24.752;2023-02-18T04:26:18;99570.06;;;9.42;39.56
10948;BME280;5526;42.070;24.752;2023-02-18T04:28:46;99576.50;;;9.35;39.47
10948;BME280;5526;42.070;24.752;2023-02-18T04:31:13;99583.00;;;9.21;40.02
10948;BME280;5526;42.070;24.752;2023-02-18T04:33:40;99570.69;;;9.10;40.53
10948;BME280;5526;42.070;24.752;2023-02-18T04:36:08;99580.03;;;9.06;40.43
10948;BME280;5526;42.070;24.752;2023-02-18T04:38:35;99577.69;;;9.04;41.28
10948;BME280;5526;42.070;24.752;2023-02-18T04:41:02;99588.84;;;9.11;40.53
10948;BME280;5526;42.070;24.752;2023-02-18T04:43:29;99581.19;;;8.98;41.35
10948;BME280;5526;42.070;24.752;2023-02-18T04:45:57;99580.03;;;9.06;41.76
10948;BME280;5526;42.070;24.752;2023-02-18T04:48:24;99583.72;;;9.16;40.59
10948;BME280;5526;42.070;24.752;2023-02-18T04:50:51;99591.44;;;9.34;40.00
10948;BME280;5526;42.070;24.752;2023-02-18T04:53:18;99580.09;;;9.57;39.34
10948;BME280;5526;42.070;24.752;2023-02-18T04:55:49;99575.47;;;9.75;39.09
10948;BME280;5526;42.070;24.752;2023-02-18T04:58:16;99571.22;;;9.86;38.70
10948;BME280;5526;42.070;24.752;2023-02-18T05:00:43;99576.88;;;10.06;38.24
10948;BME280;5526;42.070;24.752;2023-02-18T05:03:12;99571.16;;;10.09;38.44
10948;BME280;5526;42.070;24.752;2023-02-18T05:05:39;99569.97;;;10.16;38.21
10948;BME280;5526;42.070;24.752;2023-02-18T05:08:07;99573.00;;;10.25;37.82
10948;BME280;5526;42.070;24.752;2023-02-18T05:10:34;99579.47;;;10.34;37.41
10948;BME280;5526;42.070;24.752;2023-02-18T05:13:02;99577.50;;;10.41;37.61
10948;BME280;5526;42.070;24.752;2023-02-18T05:15:29;99570.56;;;10.51;37.11
10948;BME280;5526;42.070;24.752;2023-02-18T05:17:56;99577.75;;;10.56;37.41
10948;BME280;5526;42.070;24.752;2023-02-18T05:20:25;99582.53;;;10.59;37.04
10948;BME280;5526;42.070;24.752;2023-02-18T05:22:52;99577.34;;;10.64;37.43
10948;BME280;5526;42.070;24.752;2023-02-18T05:25:19;99575.84;;;10.68;37.25
10948;BME280;5526;42.070;24.752;2023-02-18T05:27:47;99570.09;;;10.71;36.90
10948;BME280;5526;42.070;24.752;2023-02-18T05:30:14;99568.59;;;10.75;36.99
10948;BME280;5526;42.070;24.752;2023-02-18T05:32:41;99563.31;;;10.75;36.71
10948;BME280;5526;42.070;24.752;2023-02-18T05:35:08;99560.44;;;10.76;36.74
10948;BME280;5526;42.070;24.752;2023-02-18T05:37:37;99554.91;;;10.78;37.10
10948;BME280;5526;42.070;24.752;2023-02-18T05:40:05;99548.47;;;10.85;37.05
10948;BME280;5526;42.070;24.752;2023-02-18T05:42:32;99549.00;;;10.87;36.75
10948;BME280;5526;42.070;24.752;2023-02-18T05:44:59;99556.28;;;10.80;36.87
10948;BME280;5526;42.070;24.752;2023-02-18T05:47:26;99539.84;;;10.90;37.41
10948;BME280;5526;42.070;24.752;2023-02-18T05:49:53;99540.69;;;10.95;36.71
10948;BME280;5526;42.070;24.752;2023-02-18T05:52:21;99540.09;;;10.88;36.46
10948;BME280;5526;42.070;24.752;2023-02-18T05:54:50;99556.06;;;11.03;36.42
10948;BME280;5526;42.070;24.752;2023-02-18T05:57:17;99554.16;;;11.15;36.57
10948;BME280;5526;42.070;24.752;2023-02-18T05:59:44;99543.44;;;11.22;36.55
10948;BME280;5526;42.070;24.752;2023-02-18T06:02:11;99550.34;;;11.28;36.32
10948;BME280;5526;42.070;24.752;2023-02-18T06:04:38;99546.28;;;11.37;36.22
10948;BME280;5526;42.070;24.752;2023-02-18T06:07:05;99548.22;;;11.46;36.01
10948;BME280;5526;42.070;24.752;2023-02-18T06:09:32;99548.06;;;11.53;36.04
10948;BME280;5526;42.070;24.752;2023-02-18T06:12:01;99554.19;;;11.58;36.14
10948;BME280;5526;42.070;24.752;2023-02-18T06:14:28;99548.19;;;11.63;36.16
10948;BME280;5526;42.070;24.752;2023-02-18T06:16:55;99548.09;;;11.58;36.42
10948;BME280;5526;42.070;24.752;2023-02-18T06:19:22;99547.69;;;11.66;36.80
10948;BME280;5526;42.070;24.752;2023-02-18T06:21:49;99552.56;;;11.57;36.80
10948;BME280;5526;42.070;24.752;2023-02-18T06:24:16;99549.50;;;11.44;37.24
10948;BME280;5526;42.070;24.752;2023-02-18T06:26:43;99548.91;;;11.37;37.76
10948;BME280;5526;42.070;24.752;2023-02-18T06:29:11;99559.66;;;11.14;38.57
10948;BME280;5526;42.070;24.752;2023-02-18T06:31:38;99555.38;;;11.08;38.71
10948;BME280;5526;42.070;24.752;2023-02-18T06:34:05;99552.59;;;10.98;39.48
10948;BME280;5526;42.070;24.752;2023-02-18T06:36:32;99550.13;;;10.91;39.05
10948;BME280;5526;42.070;24.752;2023-02-18T06:39:02;99555.94;;;11.10;38.57
10948;BME280;5526;42.070;24.752;2023-02-18T06:41:29;99554.72;;;11.01;39.43
10948;BME280;5526;42.070;24.752;2023-02-18T06:43:56;99559.81;;;11.07;39.65
10948;BME280;5526;42.070;24.752;2023-02-18T06:46:25;99558.53;;;10.88;40.47
10948;BME280;5526;42.070;24.752;2023-02-18T06:48:52;99562.97;;;10.88;40.33
10948;BME280;5526;42.070;24.752;2023-02-18T06:51:19;99567.13;;;10.84;40.25
10948;BME280;5526;42.070;24.752;2023-02-18T06:53:46;99561.94;;;10.89;40.19
10948;BME280;5526;42.070;24.752;2023-02-18T06:56:13;99560.16;;;11.11;39.43
10948;BME280;5526;42.070;24.752;2023-02-18T06:58:40;99548.31;;;11.13;39.65
10948;BME280;5526;42.070;24.752;2023-02-18T07:01:07;99529.47;;;11.43;38.81
10948;BME280;5526;42.070;24.752;2023-02-18T07:03:36;99516.19;;;11.76;38.12
10948;BME280;5526;42.070;24.752;2023-02-18T07:06:04;99507.00;;;12.10;37.41
10948;BME280;5526;42.070;24.752;2023-02-18T07:08:31;99494.66;;;12.47;35.98
10948;BME280;5526;42.070;24.752;2023-02-18T07:11:00;99501.06;;;12.98;34.85
10948;BME280;5526;42.070;24.752;2023-02-18T07:13:27;99493.63;;;13.41;33.67
10948;BME280;5526;42.070;24.752;2023-02-18T07:15:54;99488.94;;;13.78;33.09
10948;BME280;5526;42.070;24.752;2023-02-18T07:18:21;99497.19;;;14.07;33.42
10948;BME280;5526;42.070;24.752;2023-02-18T07:20:50;99508.03;;;13.85;35.35
10948;BME280;5526;42.070;24.752;2023-02-18T07:23:17;99505.31;;;13.65;36.11
10948;BME280;5526;42.070;24.752;2023-02-18T07:25:44;99511.06;;;13.37;36.86
10948;BME280;5526;42.070;24.752;2023-02-18T07:28:11;99502.63;;;13.50;36.77
10948;BME280;5526;42.070;24.752;2023-02-18T07:30:38;99498.97;;;13.61;37.18
10948;BME280;5526;42.070;24.752;2023-02-18T07:33:05;99504.78;;;13.58;36.68
10948;BME280;5526;42.070;24.752;2023-02-18T07:35:32;99506.41;;;13.79;36.33
10948;BME280;5526;42.070;24.752;2023-02-18T07:38:01;99508.03;;;13.90;35.01
10948;BME280;5526;42.070;24.752;2023-02-18T07:40:28;99510.69;;;14.05;35.00
10948;BME280;5526;42.070;24.752;2023-02-18T07:42:55;99500.38;;;14.19;34.50
10948;BME280;5526;42.070;24.752;2023-02-18T07:45:22;99502.53;;;14.37;33.89
10948;BME280;5526;42.070;24.752;2023-02-18T07:47:50;99499.88;;;14.42;33.63
10948;BME280;5526;42.070;24.752;2023-02-18T07:50:17;99484.50;;;14.44;33.23
10948;BME280;5526;42.070;24.752;2023-02-18T07:52:44;99503.06;;;14.54;33.11
10948;BME280;5526;42.070;24.752;2023-02-18T07:55:12;99488.22;;;14.68;32.82
10948;BME280;5526;42.070;24.752;2023-02-18T07:57:39;99490.56;;;14.69;31.46
10948;BME280;5526;42.070;24.752;2023-02-18T08:00:20;99483.69;;;14.78;32.21
10948;BME280;5526;42.070;24.752;2023-02-18T08:02:47;99491.41;;;14.60;31.64
10948;BME280;5526;42.070;24.752;2023-02-18T08:05:14;99481.88;;;14.54;32.59
10948;BME280;5526;42.070;24.752;2023-02-18T08:07:41;99462.00;;;14.26;32.22
10948;BME280;5526;42.070;24.752;2023-02-18T08:10:09;99472.59;;;14.51;32.35
10948;BME280;5526;42.070;24.752;2023-02-18T08:12:37;99466.75;;;14.64;32.22
10948;BME280;5526;42.070;24.752;2023-02-18T08:15:05;99471.97;;;14.94;31.91
10948;BME280;5526;42.070;24.752;2023-02-18T08:17:32;99469.81;;;15.06;31.64
10948;BME280;5526;42.070;24.752;2023-02-18T08:19:59;99479.38;;;15.02;31.85
10948;BME280;5526;42.070;24.752;2023-02-18T08:22:26;99473.75;;;15.19;31.30
10948;BME280;5526;42.070;24.752;2023-02-18T08:24:54;99484.84;;;15.26;31.11
10948;BME280;5526;42.070;24.752;2023-02-18T08:27:22;99478.78;;;15.15;30.57
10948;BME280;5526;42.070;24.752;2023-02-18T08:29:51;99486.41;;;15.47;30.44
10948;BME280;5526;42.070;24.752;2023-02-18T08:32:18;99487.66;;;15.59;30.28
10948;BME280;5526;42.070;24.752;2023-02-18T08:34:45;99479.13;;;15.67;30.56
10948;BME280;5526;42.070;24.752;2023-02-18T08:37:12;99478.78;;;15.25;30.46
10948;BME280;5526;42.070;24.752;2023-02-18T08:39:39;99482.75;;;15.18;31.15
10948;BME280;5526;42.070;24.752;2023-02-18T08:42:06;99493.59;;;15.36;30.65
10948;BME280;5526;42.070;24.752;2023-02-18T08:44:34;99481.59;;;15.49;30.93
10948;BME280;5526;42.070;24.752;2023-02-18T08:47:02;99477.25;;;15.68;30.64
10948;BME280;5526;42.070;24.752;2023-02-18T08:49:30;99484.91;;;15.79;30.31
10948;BME280;5526;42.070;24.752;2023-02-18T08:51:57;99481.56;;;15.97;30.26
10948;BME280;5526;42.070;24.752;2023-02-18T08:54:24;99489.69;;;16.11;30.53
10948;BME280;5526;42.070;24.752;2023-02-18T08:56:53;99488.00;;;16.25;30.19
10948;BME280;5526;42.070;24.752;2023-02-18T08:59:20;99495.13;;;16.34;29.71
10948;BME280;5526;42.070;24.752;2023-02-18T09:01:47;99497.69;;;16.44;29.78
10948;BME280;5526;42.070;24.752;2023-02-18T09:04:15;99504.06;;;15.71;29.47
10948;BME280;5526;42.070;24.752;2023-02-18T09:06:43;99500.69;;;15.94;29.65
10948;BME280;5526;42.070;24.752;2023-02-18T09:09:11;99491.28;;;16.12;29.77
10948;BME280;5526;42.070;24.752;2023-02-18T09:11:38;99501.25;;;16.63;29.40
10948;BME280;5526;42.070;24.752;2023-02-18T09:14:05;99495.59;;;16.70;29.05
10948;BME280;5526;42.070;24.752;2023-02-18T09:16:32;99503.25;;;16.48;29.22
10948;BME280;5526;42.070;24.752;2023-02-18T09:18:59;99501.59;;;16.80;29.28
10948;BME280;5526;42.070;24.752;2023-02-18T09:21:28;99492.69;;;16.95;28.54
10948;BME280;5526;42.070;24.752;2023-02-18T09:23:55;99491.56;;;17.25;28.01
10948;BME280;5526;42.070;24.752;2023-02-18T09:26:23;99478.63;;;17.18;27.36
10948;BME280;5526;42.070;24.752;2023-02-18T09:28:53;99473.81;;;17.39;26.92
10948;BME280;5526;42.070;24.752;2023-02-18T09:31:22;99477.97;;;17.50;26.03
10948;BME280;5526;42.070;24.752;2023-02-18T09:33:52;99463.16;;;17.81;26.39
10948;BME280;5526;42.070;24.752;2023-02-18T09:36:19;99453.44;;;17.90;26.53
10948;BME280;5526;42.070;24.752;2023-02-18T09:38:48;99453.44;;;17.90;25.84
10948;BME280;5526;42.070;24.752;2023-02-18T09:41:23;99460.41;;;17.67;25.69
10948;BME280;5526;42.070;24.752;2023-02-18T09:43:54;99463.66;;;17.22;25.83
10948;BME280;5526;42.070;24.752;2023-02-18T09:46:27;99465.97;;;17.05;25.88
10948;BME280;5526;42.070;24.752;2023-02-18T09:48:57;99471.09;;;17.02;26.91
10948;BME280;5526;42.070;24.752;2023-02-18T09:51:26;99477.41;;;17.06;26.96
10948;BME280;5526;42.070;24.752;2023-02-18T09:53:55;99467.44;;;17.16;26.60
10948;BME280;5526;42.070;24.752;2023-02-18T09:56:28;99477.25;;;17.21;26.87
10948;BME280;5526;42.070;24.752;2023-02-18T09:58:58;99465.28;;;17.42;27.27
10948;BME280;5526;42.070;24.752;2023-02-18T10:01:30;99460.88;;;17.32;26.70
10948;BME280;5526;42.070;24.752;2023-02-18T10:04:00;99454.88;;;17.82;26.58
10948;BME280;5526;42.070;24.752;2023-02-18T10:06:31;99443.16;;;18.15;26.18
10948;BME280;5526;42.070;24.752;2023-02-18T10:09:02;99444.00;;;18.29;26.14
10948;BME280;5526;42.070;24.752;2023-02-18T10:11:32;99437.34;;;18.45;26.24
10948;BME280;5526;42.070;24.752;2023-02-18T10:14:01;99417.66;;;18.28;26.32
10948;BME280;5526;42.070;24.752;2023-02-18T10:16:29;99423.06;;;18.55;25.90
10948;BME280;5526;42.070;24.752;2023-02-18T10:18:58;99413.59;;;18.76;25.93
10948;BME280;5526;42.070;24.752;2023-02-18T10:21:29;99402.63;;;19.04;25.78
10948;BME280;5526;42.070;24.752;2023-02-18T10:24:02;99382.69;;;19.51;25.48
10948;BME280;5526;42.070;24.752;2023-02-18T10:26:33;99387.66;;;19.66;25.37
10948;BME280;5526;42.070;24.752;2023-02-18T10:29:01;99387.06;;;19.91;25.13
10948;BME280;5526;42.070;24.752;2023-02-18T10:31:32;99377.78;;;19.66;24.99
10948;BME280;5526;42.070;24.752;2023-02-18T10:34:06;99379.94;;;19.64;24.95
10948;BME280;5526;42.070;24.752;2023-02-18T10:36:44;99386.00;;;19.21;25.25
10948;BME280;5526;42.070;24.752;2023-02-18T10:42:22;99380.34;;;19.36;25.74
10948;BME280;5526;42.070;24.752;2023-02-18T10:44:59;99361.50;;;19.54;25.66
10948;BME280;5526;42.070;24.752;2023-02-18T10:47:36;99358.72;;;19.81;25.28
10948;BME280;5526;42.070;24.752;2023-02-18T10:50:09;99350.06;;;20.06;25.20
10948;BME280;5526;42.070;24.752;2023-02-18T10:52:40;99347.03;;;20.21;24.79
10948;BME280;5526;42.070;24.752;2023-02-18T10:55:11;99346.72;;;20.62;24.66
10948;BME280;5526;42.070;24.752;2023-02-18T10:57:47;99340.97;;;20.38;24.33
10948;BME280;5526;42.070;24.752;2023-02-18T11:00:17;99343.78;;;20.33;24.50
10948;BME280;5526;42.070;24.752;2023-02-18T11:02:45;99338.69;;;20.62;24.34
10948;BME280;5526;42.070;24.752;2023-02-18T11:05:19;99345.16;;;20.61;24.08
10948;BME280;5526;42.070;24.752;2023-02-18T11:07:50;99330.41;;;20.80;24.06
10948;BME280;5526;42.070;24.752;2023-02-18T11:10:23;99323.88;;;21.38;23.74
10948;BME280;5526;42.070;24.752;2023-02-18T11:12:54;99332.53;;;21.60;23.50
10948;BME280;5526;42.070;24.752;2023-02-18T11:15:23;99331.91;;;21.55;23.59
10948;BME280;5526;42.070;24.752;2023-02-18T11:17:51;99317.44;;;21.47;23.46
10948;BME280;5526;42.070;24.752;2023-02-18T11:20:26;99325.28;;;21.18;23.91
10948;BME280;5526;42.070;24.752;2023-02-18T11:22:57;99306.53;;;21.18;24.38
10948;BME280;5526;42.070;24.752;2023-02-18T11:25:27;99299.47;;;21.05;24.71
10948;BME280;5526;42.070;24.752;2023-02-18T11:28:00;99313.88;;;20.78;24.40
10948;BME280;5526;42.070;24.752;2023-02-18T11:30:32;99300.41;;;20.92;24.34
10948;BME280;5526;42.070;24.752;2023-02-18T11:33:06;99308.13;;;21.02;24.86
10948;BME280;5526;42.070;24.752;2023-02-18T11:35:35;99302.78;;;21.36;24.73
10948;BME280;5526;42.070;24.752;2023-02-18T11:38:17;99300.09;;;21.11;24.33
10948;BME280;5526;42.070;24.752;2023-02-18T11:40:54;99300.03;;;20.85;24.71
10948;BME280;5526;42.070;24.752;2023-02-18T11:43:26;99296.00;;;21.22;24.67
10948;BME280;5526;42.070;24.752;2023-02-18T11:46:08;99284.66;;;21.08;24.55
10948;BME280;5526;42.070;24.752;2023-02-18T11:48:35;99298.50;;;21.18;24.72
10948;BME280;5526;42.070;24.752;2023-02-18T11:51:03;99284.97;;;21.40;24.59
10948;BME280;5526;42.070;24.752;2023-02-18T11:53:32;99273.97;;;21.08;24.84
10948;BME280;5526;42.070;24.752;2023-02-18T11:56:02;99285.56;;;20.86;25.51
10948;BME280;5526;42.070;24.752;2023-02-18T11:58:38;99277.13;;;21.35;25.46
10948;BME280;5526;42.070;24.752;2023-02-18T12:01:12;99271.88;;;21.73;25.55
10948;BME280;5526;42.070;24.752;2023-02-18T12:03:45;99269.50;;;21.80;25.65
10948;BME280;5526;42.070;24.752;2023-02-18T12:06:18;99264.47;;;22.16;25.42
10948;BME280;5526;42.070;24.752;2023-02-18T12:08:50;99296.00;;;21.73;25.18
10948;BME280;5526;42.070;24.752;2023-02-18T12:11:26;99258.00;;;21.62;25.16
10948;BME280;5526;42.070;24.752;2023-02-18T12:13:56;99259.59;;;21.55;25.32
10948;BME280;5526;42.070;24.752;2023-02-18T12:16:31;99259.06;;;21.70;25.33
10948;BME280;5526;42.070;24.752;2023-02-18T12:19:18;99253.91;;;21.65;25.44
10948;BME280;5526;42.070;24.752;2023-02-18T12:21:53;99261.03;;;21.27;25.12
10948;BME280;5526;42.070;24.752;2023-02-18T12:24:39;99256.97;;;21.12;25.65
10948;BME280;5526;42.070;24.752;2023-02-18T12:27:15;99245.88;;;21.56;25.12
10948;BME280;5526;42.070;24.752;2023-02-18T12:30:02;99246.38;;;21.41;25.55
10948;BME280;5526;42.070;24.752;2023-02-18T12:32:45;99239.06;;;21.67;25.66
10948;BME280;5526;42.070;24.752;2023-02-18T12:35:31;99243.75;;;21.87;25.47
10948;BME280;5526;42.070;24.752;2023-02-18T12:38:15;99248.38;;;21.78;25.50
10948;BME280;5526;42.070;24.752;2023-02-18T12:41:03;99240.22;;;21.49;25.86
10948;BME280;5526;42.070;24.752;2023-02-18T12:43:43;99242.31;;;21.18;26.02
10948;BME280;5526;42.070;24.752;2023-02-18T12:46:23;99242.44;;;21.30;26.16
10948;BME280;5526;42.070;24.752;2023-02-18T12:49:12;99229.88;;;21.14;25.96
10948;BME280;5526;42.070;24.752;2023-02-18T12:51:56;99226.72;;;21.03;26.20
10948;BME280;5526;42.070;24.752;2023-02-18T12:54:42;99221.84;;;21.05;26.18
10948;BME280;5526;42.070;24.752;2023-02-18T12:57:21;99206.41;;;21.11;26.26
10948;BME280;5526;42.070;24.752;2023-02-18T13:00:08;99209.41;;;21.01;26.23
10948;BME280;5526;42.070;24.752;2023-02-18T13:02:50;99219.75;;;20.59;26.43
10948;BME280;5526;42.070;24.752;2023-02-18T13:05:27;99214.41;;;20.68;26.73
10948;BME280;5526;42.070;24.752;2023-02-18T13:08:05;99207.00;;;20.56;27.45
10948;BME280;5526;42.070;24.752;2023-02-18T13:11:00;99207.81;;;20.57;27.53
10948;BME280;5526;42.070;24.752;2023-02-18T13:13:32;99211.91;;;20.71;27.31
10948;BME280;5526;42.070;24.752;2023-02-18T13:16:04;99206.88;;;20.70;27.42
10948;BME280;5526;42.070;24.752;2023-02-18T13:18:35;99206.38;;;20.51;27.23
10948;BME280;5526;42.070;24.752;2023-02-18T13:21:05;99202.59;;;20.77;27.42
10948;BME280;5526;42.070;24.752;2023-02-18T13:23:34;99203.13;;;20.97;27.17
10948;BME280;5526;42.070;24.752;2023-02-18T13:26:05;99200.25;;;20.84;27.27
10948;BME280;5526;42.070;24.752;2023-02-18T13:28:39;99206.75;;;20.92;27.19
10948;BME280;5526;42.070;24.752;2023-02-18T13:31:31;99204.34;;;20.73;27.41